Time;durP1;ratioP1;P1;durP2;ratioP2;P2;SDS_P1;SDS_P2;PMS_P1;PMS_P2;Temp;Humidity;BMP_temperature;BMP_pressure;BME280_temperature;BME280_humidity;BME280_pressure;Samples;Min_cycle;Max_cycle;Signal;HPM_P1;HPM_P2
2021/10/04 00:03:30;;;;;;;6.03;4.15;;;;;;;23.09;36.10;95700.94;5055518;22;20064;-59
2021/10/04 00:05:55;;;;;;;5.43;3.83;;;;;;;23.06;35.91;95691.03;5047114;28;20037;-59
2021/10/04 00:08:21;;;;;;;6.30;4.00;;;;;;;23.05;36.21;95692.25;5045520;28;20685;-60
2021/10/04 00:10:46;;;;;;;5.45;3.90;;;;;;;23.06;35.78;95688.28;5047404;28;20024;-59
2021/10/04 00:13:12;;;;;;;6.32;3.67;;;;;;;23.05;36.08;95684.06;5034180;28;20025;-59
2021/10/04 00:15:37;;;;;;;6.07;4.03;;;;;;;22.93;35.83;95682.53;5027502;28;20029;-60
2021/10/04 00:18:03;;;;;;;5.97;3.97;;;;;;;23.04;36.00;95704.38;5026683;28;20029;-60
2021/10/04 00:20:28;;;;;;;6.05;3.75;;;;;;;23.02;35.79;95701.41;5027320;28;20029;-60
2021/10/04 00:22:55;;;;;;;6.72;3.95;;;;;;;23.00;35.69;95698.44;5027003;28;20450;-60
2021/10/04 00:25:20;;;;;;;7.95;4.55;;;;;;;23.01;35.98;95702.63;5026083;28;20033;-59
2021/10/04 00:27:46;;;;;;;6.40;3.88;;;;;;;23.00;36.07;95703.09;5026772;28;20044;-60
2021/10/04 00:30:11;;;;;;;6.00;4.43;;;;;;;22.99;36.20;95702.38;5026076;28;20495;-60
2021/10/04 00:32:40;;;;;;;7.38;4.00;;;;;;;22.98;36.18;95695.44;5025991;28;20035;-60
2021/10/04 00:35:05;;;;;;;4.75;3.83;;;;;;;22.99;36.21;95699.66;5026674;28;20041;-60
2021/10/04 00:37:32;;;;;;;6.57;4.20;;;;;;;22.99;36.18;95702.38;5025873;28;20419;-60
2021/10/04 00:39:57;;;;;;;6.55;3.95;;;;;;;23.00;36.01;95698.44;5026949;28;20029;-59
2021/10/04 00:42:23;;;;;;;5.80;4.10;;;;;;;22.96;35.83;95697.91;5026774;28;20025;-60
2021/10/04 00:44:49;;;;;;;6.57;4.25;;;;;;;22.96;35.95;95695.19;5024686;28;20026;-60
2021/10/04 00:47:15;;;;;;;4.88;3.78;;;;;;;22.95;35.92;95685.50;5024096;28;20029;-60
2021/10/04 00:49:41;;;;;;;6.05;3.88;;;;;;;22.90;36.01;95678.03;5026961;28;20474;-59
2021/10/04 00:52:07;;;;;;;5.72;3.58;;;;;;;22.96;35.97;95692.47;5025760;28;20041;-59
2021/10/04 00:54:32;;;;;;;5.20;3.75;;;;;;;22.95;35.84;95685.50;5005922;28;20603;-60
2021/10/04 00:56:58;;;;;;;5.53;3.92;;;;;;;22.83;35.88;95677.78;5006247;28;20034;-59
2021/10/04 00:59:23;;;;;;;6.18;4.03;;;;;;;22.93;36.07;95677.09;5010721;28;20029;-60
2021/10/04 01:01:49;;;;;;;5.43;3.88;;;;;;;22.92;35.85;95694.63;5025934;28;20038;-60
2021/10/04 01:04:14;;;;;;;5.85;3.38;;;;;;;22.91;36.15;95706.78;5024903;28;20040;-60
2021/10/04 01:06:39;;;;;;;6.18;3.50;;;;;;;22.92;36.14;95697.34;5036950;28;20044;-60
2021/10/04 01:09:05;;;;;;;5.88;3.90;;;;;;;22.89;36.37;95690.16;5046245;28;20028;-60
2021/10/04 01:11:30;;;;;;;5.47;3.53;;;;;;;22.91;35.94;95689.69;5045088;28;20104;-60
2021/10/04 01:13:56;;;;;;;6.20;3.90;;;;;;;22.88;35.94;95691.41;5024489;28;20029;-60
2021/10/04 01:16:21;;;;;;;6.13;3.72;;;;;;;22.88;36.10;95684.47;5029355;28;20029;-60
2021/10/04 01:18:47;;;;;;;4.95;3.40;;;;;;;22.88;35.80;95684.47;5046107;28;20025;-60
2021/10/04 01:21:12;;;;;;;5.72;3.60;;;;;;;22.86;36.32;95687.69;5045665;28;20083;-60
2021/10/04 01:23:38;;;;;;;5.05;3.63;;;;;;;22.88;35.93;95695.38;5046147;28;20793;-60
2021/10/04 01:26:03;;;;;;;5.32;3.53;;;;;;;22.86;35.66;95697.84;5039794;28;20020;-60
2021/10/04 01:28:29;;;;;;;4.78;3.35;;;;;;;22.86;36.31;95693.13;5046153;28;20069;-59
2021/10/04 01:30:54;;;;;;;5.45;3.70;;;;;;;22.85;35.79;95696.34;5041304;28;20116;-60
2021/10/04 01:33:20;;;;;;;5.38;3.60;;;;;;;22.85;36.26;95680.00;5028078;28;20037;-60
2021/10/04 01:35:45;;;;;;;6.38;3.50;;;;;;;22.84;36.23;95683.94;5044879;28;20031;-60
2021/10/04 01:38:11;;;;;;;4.78;3.35;;;;;;;22.82;36.29;95680.97;5045089;28;20490;-60
2021/10/04 01:40:39;;;;;;;5.78;3.67;;;;;;;22.83;35.87;95683.22;5045330;28;20711;-59
2021/10/04 01:43:04;;;;;;;5.35;3.33;;;;;;;22.82;36.08;95675.53;5045657;28;20392;-59
2021/10/04 01:45:30;;;;;;;5.25;3.30;;;;;;;22.71;36.00;95667.34;5043874;28;20079;-60
2021/10/04 01:47:59;;;;;;;4.82;3.35;;;;;;;22.79;36.26;95671.81;5037864;28;20045;-60
2021/10/04 01:50:25;;;;;;;5.20;3.60;;;;;;;22.79;36.25;95677.25;5025900;28;20115;-60
2021/10/04 01:52:51;;;;;;;5.35;3.45;;;;;;;22.81;36.22;95679.47;5012970;28;20083;-60
2021/10/04 01:55:16;;;;;;;5.07;3.20;;;;;;;22.81;35.96;95674.03;5031819;28;20040;-60
2021/10/04 01:57:42;;;;;;;5.53;3.58;;;;;;;22.79;35.83;95676.50;5044561;28;20041;-60
2021/10/04 02:00:10;;;;;;;6.30;3.75;;;;;;;22.82;35.77;95686.44;5031135;28;20422;-59
2021/10/04 02:02:36;;;;;;;4.93;3.20;;;;;;;22.78;35.93;95680.47;5039756;28;20469;-59
2021/10/04 02:05:01;;;;;;;5.10;3.25;;;;;;;22.77;36.12;95668.09;5043129;28;20028;-60
2021/10/04 02:07:27;;;;;;;4.95;2.90;;;;;;;22.77;36.22;95684.44;5041504;28;20075;-59
2021/10/04 02:09:52;;;;;;;5.03;3.08;;;;;;;22.76;36.16;95688.38;5042653;28;20025;-60
2021/10/04 02:12:17;;;;;;;5.18;3.40;;;;;;;22.77;35.98;95684.44;5036505;28;20045;-60
2021/10/04 02:14:43;;;;;;;5.00;3.30;;;;;;;22.74;36.05;95690.84;5045270;28;20033;-60
2021/10/04 02:17:08;;;;;;;4.07;3.03;;;;;;;22.73;35.95;95694.81;5043876;28;20518;-60
2021/10/04 02:19:34;;;;;;;4.75;3.22;;;;;;;22.73;36.25;95694.81;5043690;28;20025;-60
2021/10/04 02:22:00;;;;;;;4.65;3.13;;;;;;;22.73;36.17;95700.25;5027553;28;20029;-60
2021/10/04 02:24:27;;;;;;;5.18;3.13;;;;;;;22.72;36.17;95704.19;5045206;28;20468;-60
2021/10/04 02:26:52;;;;;;;4.97;3.13;;;;;;;22.71;35.98;95697.28;5041403;28;20033;-60
2021/10/04 02:29:18;;;;;;;5.63;3.20;;;;;;;22.69;36.09;95705.16;5044851;28;20033;-60
2021/10/04 02:31:43;;;;;;;5.28;2.88;;;;;;;22.67;36.30;95694.03;5049034;28;20086;-60
2021/10/04 02:34:08;;;;;;;5.43;3.03;;;;;;;22.61;36.02;95687.81;5043867;28;20037;-60
2021/10/04 02:36:34;;;;;;;4.38;2.88;;;;;;;22.71;35.92;95691.84;5047621;28;20419;-60
2021/10/04 02:38:59;;;;;;;6.13;2.88;;;;;;;22.59;35.87;95690.28;5040955;28;20483;-60
2021/10/04 02:41:25;;;;;;;5.18;3.03;;;;;;;22.65;36.13;95704.66;5047765;28;20059;-60
2021/10/04 02:43:50;;;;;;;3.42;2.28;;;;;;;22.68;36.16;95703.69;5043884;28;20499;-60
2021/10/04 02:46:16;;;;;;;4.78;3.15;;;;;;;22.66;35.82;95703.41;5044944;28;20028;-60
2021/10/04 02:48:41;;;;;;;4.35;2.70;;;;;;;22.67;35.84;95702.19;5049260;28;20051;-60
2021/10/04 02:51:07;;;;;;;4.05;2.65;;;;;;;22.64;35.96;95703.16;5048496;28;20067;-61
2021/10/04 02:53:32;;;;;;;3.75;2.58;;;;;;;22.66;36.03;95711.59;5043306;28;20420;-60
2021/10/04 02:55:58;;;;;;;3.95;2.55;;;;;;;22.67;35.90;95702.19;5048852;28;20021;-60
2021/10/04 02:58:23;;;;;;;7.05;2.90;;;;;;;22.64;36.08;95703.91;5033711;28;20041;-60
2021/10/04 03:00:49;;;;;;;5.38;3.22;;;;;;;22.64;36.05;95697.72;5028011;28;20052;-60
2021/10/04 03:03:14;;;;;;;4.03;2.70;;;;;;;22.60;36.02;95691.75;5043221;28;20048;-60
2021/10/04 03:05:40;;;;;;;5.63;2.90;;;;;;;22.63;36.20;95701.69;5026736;28;20025;-60
2021/10/04 03:08:05;;;;;;;3.75;2.67;;;;;;;22.61;36.38;95704.16;5047446;28;20032;-60
2021/10/04 03:10:32;;;;;;;4.20;2.95;;;;;;;22.60;36.10;95703.41;5043877;28;20498;-60
2021/10/04 03:12:57;;;;;;;4.20;2.70;;;;;;;22.61;35.90;95709.59;5044071;28;20039;-60
2021/10/04 03:15:23;;;;;;;4.35;2.40;;;;;;;22.63;35.92;95701.69;5047496;28;20454;-60
2021/10/04 03:17:49;;;;;;;4.75;2.97;;;;;;;22.62;36.16;95703.66;5044175;28;20744;-60
2021/10/04 03:20:14;;;;;;;4.22;3.00;;;;;;;22.59;35.86;95712.06;5048419;28;20074;-60
2021/10/04 03:22:41;;;;;;;4.43;2.80;;;;;;;22.46;35.70;95687.25;5046226;28;20021;-60
2021/10/04 03:25:07;;;;;;;4.03;3.08;;;;;;;22.60;36.12;95713.53;5046816;28;20033;-60
2021/10/04 03:27:32;;;;;;;4.47;2.53;;;;;;;22.59;36.18;95707.34;5030273;28;20040;-60
2021/10/04 03:29:58;;;;;;;3.58;2.60;;;;;;;22.57;36.06;95703.63;5028631;28;20032;-60
2021/10/04 03:32:23;;;;;;;4.45;2.83;;;;;;;22.59;35.79;95706.63;5028349;28;20068;-60
2021/10/04 03:34:49;;;;;;;5.63;2.67;;;;;;;22.44;35.99;95684.28;5031215;28;20028;-59
2021/10/04 03:37:15;;;;;;;4.50;2.63;;;;;;;22.58;36.04;95705.13;5038307;28;20487;-61
2021/10/04 03:39:41;;;;;;;3.53;2.50;;;;;;;22.58;36.47;95699.69;5031077;28;20036;-60
2021/10/04 03:42:06;;;;;;;4.22;2.85;;;;;;;22.57;36.14;95703.63;5027570;28;20115;-60
2021/10/04 03:44:32;;;;;;;3.20;2.28;;;;;;;22.56;35.93;95702.16;5027148;28;20120;-60
2021/10/04 03:46:57;;;;;;;3.88;2.78;;;;;;;22.56;36.24;95702.16;5026720;28;20044;-60
2021/10/04 03:49:23;;;;;;;4.32;2.85;;;;;;;22.55;36.25;95700.66;5028139;28;20075;-61
2021/10/04 03:51:48;;;;;;;3.83;2.50;;;;;;;22.52;35.94;95707.06;5026778;28;20032;-60
2021/10/04 03:54:14;;;;;;;3.22;2.30;;;;;;;22.51;35.98;95711.00;5024550;28;20033;-61
2021/10/04 03:56:39;;;;;;;3.72;2.63;;;;;;;22.48;36.01;95706.53;5028091;28;20044;-61
2021/10/04 03:59:05;;;;;;;3.40;2.50;;;;;;;22.52;36.06;95707.06;5026735;28;20083;-60
2021/10/04 04:01:30;;;;;;;3.50;2.50;;;;;;;22.47;36.30;95705.81;5034357;28;20040;-60
2021/10/04 04:03:56;;;;;;;5.78;2.55;;;;;;;22.51;36.08;95700.88;5032745;28;20041;-61
2021/10/04 04:06:21;;;;;;;3.25;2.20;;;;;;;22.52;36.29;95701.63;5046681;28;20200;-60
2021/10/04 04:08:47;;;;;;;4.50;2.72;;;;;;;22.49;35.90;95702.59;5028621;28;20423;-61
2021/10/04 04:11:13;;;;;;;5.28;2.60;;;;;;;22.50;36.23;95709.53;5025751;28;20029;-61
2021/10/04 04:13:38;;;;;;;3.13;2.50;;;;;;;22.49;35.73;95708.78;5029239;28;20018;-60
2021/10/04 04:16:05;;;;;;;3.95;2.40;;;;;;;22.50;35.91;95712.25;5031633;28;20021;-60
2021/10/04 04:18:31;;;;;;;3.67;2.40;;;;;;;22.38;36.09;95696.38;5047651;28;20029;-60
2021/10/04 04:20:56;;;;;;;3.13;2.50;;;;;;;22.46;36.15;95714.44;5024535;28;20041;-60
2021/10/04 04:23:21;;;;;;;5.68;3.05;;;;;;;22.47;36.24;95726.84;5024838;28;20167;-60
2021/10/04 04:25:47;;;;;;;3.38;2.45;;;;;;;22.46;35.98;95726.06;5044818;28;20083;-60
2021/10/04 04:28:12;;;;;;;4.07;2.92;;;;;;;22.34;36.15;95701.28;5043625;28;20292;-60
2021/10/04 04:30:38;;;;;;;3.92;2.80;;;;;;;22.44;36.15;95722.38;5045557;28;20025;-60
2021/10/04 04:33:03;;;;;;;3.90;2.40;;;;;;;22.45;35.97;95729.28;5027892;28;20025;-61
2021/10/04 04:35:29;;;;;;;4.72;3.17;;;;;;;22.44;36.18;95717.66;5025960;28;20464;-60
2021/10/04 04:37:54;;;;;;;3.90;2.45;;;;;;;22.46;36.22;95725.34;5024072;28;20033;-61
2021/10/04 04:40:20;;;;;;;4.90;2.78;;;;;;;22.46;35.80;95725.34;5026769;28;20545;-60
2021/10/04 04:42:45;;;;;;;4.25;2.78;;;;;;;22.43;36.21;95726.31;5025107;28;20574;-60
2021/10/04 04:45:12;;;;;;;5.05;3.08;;;;;;;22.44;35.83;95725.09;5022156;28;20443;-60
2021/10/04 04:47:38;;;;;;;4.13;2.70;;;;;;;22.43;35.99;95726.31;5038092;28;20098;-60
2021/10/04 04:50:04;;;;;;;3.90;2.90;;;;;;;22.42;36.18;95730.28;5040125;28;20033;-61
2021/10/04 04:52:29;;;;;;;5.22;2.53;;;;;;;22.44;36.32;95727.81;5028612;28;20032;-61
2021/10/04 04:54:55;;;;;;;4.10;2.58;;;;;;;22.45;36.54;95734.72;5033212;28;20454;-61
2021/10/04 04:57:21;;;;;;;4.63;3.13;;;;;;;22.43;36.39;95723.59;5036009;28;20028;-60
2021/10/04 04:59:46;;;;;;;14.30;3.50;;;;;;;22.46;36.55;95741.66;5025781;28;20079;-60
2021/10/04 05:02:12;;;;;;;7.00;2.88;;;;;;;22.46;36.38;95733.50;5034172;28;20033;-61
2021/10/04 05:04:37;;;;;;;4.70;2.85;;;;;;;22.48;36.79;95733.75;5030691;28;20043;-60
2021/10/04 05:07:03;;;;;;;5.53;2.80;;;;;;;22.53;36.23;95746.69;5029514;28;20034;-61
2021/10/04 05:09:28;;;;;;;43.17;27.65;;;;;;;22.56;36.91;95748.44;5027346;28;20025;-60
2021/10/04 05:11:54;;;;;;;14.82;9.00;;;;;;;22.61;37.08;95744.97;5039556;28;20173;-60
2021/10/04 05:14:19;;;;;;;9.00;5.25;;;;;;;22.66;36.87;95744.25;5033827;28;20068;-61
2021/10/04 05:16:46;;;;;;;8.40;5.22;;;;;;;22.72;36.65;95742.31;5031308;28;20021;-61
2021/10/04 05:19:12;;;;;;;10.82;6.03;;;;;;;22.85;36.83;95739.91;5025427;28;20686;-62
2021/10/04 05:21:38;;;;;;;10.35;5.57;;;;;;;22.91;36.53;95744.16;5036277;28;20052;-61
2021/10/04 05:24:03;;;;;;;10.82;5.72;;;;;;;23.03;36.89;95745.72;5040357;28;20507;-61
2021/10/04 05:26:29;;;;;;;8.60;5.68;;;;;;;23.10;36.64;95745.25;5041109;28;20507;-60
2021/10/04 05:28:54;;;;;;;9.65;5.78;;;;;;;23.07;36.38;95736.06;5041335;28;20419;-60
2021/10/04 05:31:20;;;;;;;10.27;4.38;;;;;;;23.25;36.39;95751.25;5040907;28;20032;-61
2021/10/04 05:33:45;;;;;;;6.78;4.47;;;;;;;23.31;36.45;95744.59;5027556;28;20040;-62
2021/10/04 05:36:11;;;;;;;7.90;5.22;;;;;;;23.37;36.59;95753.53;5025031;28;20040;-62
2021/10/04 05:38:36;;;;;;;6.32;4.13;;;;;;;23.45;37.07;95749.06;5030690;28;20029;-62
2021/10/04 05:41:02;;;;;;;6.30;4.18;;;;;;;23.53;36.72;95750.09;5032555;28;20040;-61
2021/10/04 05:43:27;;;;;;;7.93;4.20;;;;;;;23.56;38.96;95754.56;5042171;28;20507;-61
2021/10/04 05:45:53;;;;;;;6.28;3.90;;;;;;;23.64;37.60;95756.34;5024985;28;20087;-61
2021/10/04 05:48:18;;;;;;;9.45;3.80;;;;;;;23.68;36.95;95756.13;5042697;28;20056;-61
2021/10/04 05:50:44;;;;;;;8.75;4.07;;;;;;;23.76;36.85;95740.75;5042074;28;20029;-61
2021/10/04 05:53:09;;;;;;;7.38;3.83;;;;;;;23.79;37.11;95756.13;5042495;28;20024;-61
2021/10/04 05:55:35;;;;;;;6.05;3.92;;;;;;;23.79;36.91;95756.13;5042963;28;20021;-61
2021/10/04 05:58:00;;;;;;;6.13;3.72;;;;;;;23.86;37.01;95744.75;5043066;28;20485;-61
2021/10/04 06:00:26;;;;;;;9.65;4.50;;;;;;;23.92;36.75;95749.69;5037908;28;20474;-61
2021/10/04 06:02:51;;;;;;;9.77;4.60;;;;;;;23.95;36.39;95754.16;5039017;28;20286;-61
2021/10/04 06:05:17;;;;;;;10.20;4.03;;;;;;;23.97;36.63;95762.59;5041864;28;20052;-61
2021/10/04 06:07:42;;;;;;;7.57;4.10;;;;;;;24.05;35.82;95758.16;5035749;28;20853;-62
2021/10/04 06:10:10;;;;;;;7.88;4.25;;;;;;;24.11;35.93;95756.16;5042548;28;20550;-61
2021/10/04 06:12:36;;;;;;;10.45;4.97;;;;;;;24.08;35.74;95751.69;5038948;28;20025;-61
2021/10/04 06:15:04;;;;;;;8.07;4.10;;;;;;;24.17;35.56;95759.63;5037161;28;20025;-61
2021/10/04 06:17:29;;;;;;;6.32;3.72;;;;;;;24.23;35.73;95763.13;5035291;28;20036;-61
2021/10/04 06:19:55;;;;;;;7.68;4.03;;;;;;;24.26;35.19;95756.66;5039274;28;20083;-61
2021/10/04 06:22:21;;;;;;;7.47;3.80;;;;;;;24.29;35.40;95771.28;5033881;28;20033;-60
2021/10/04 06:24:47;;;;;;;7.20;3.90;;;;;;;24.21;35.30;95754.66;5038007;28;20060;-60
2021/10/04 06:27:12;;;;;;;5.43;3.47;;;;;;;24.40;35.44;95766.59;5033783;28;20061;-60
2021/10/04 06:29:38;;;;;;;8.15;3.80;;;;;;;24.40;35.60;95761.13;5042208;28;20071;-60
2021/10/04 06:32:05;;;;;;;9.20;3.80;;;;;;;24.45;35.37;95763.88;5034577;28;20032;-61
2021/10/04 06:34:30;;;;;;;8.68;4.00;;;;;;;24.46;35.07;95770.06;5041771;28;20032;-62
2021/10/04 06:36:55;;;;;;;7.55;4.13;;;;;;;24.30;35.43;95773.50;5031944;28;20061;-61
2021/10/04 06:39:21;;;;;;;8.52;3.92;;;;;;;24.36;34.95;95771.56;5032895;28;20532;-61
2021/10/04 06:41:46;;;;;;;7.97;3.85;;;;;;;24.27;34.85;95769.03;5029684;28;20056;-62
2021/10/04 06:44:12;;;;;;;10.43;4.97;;;;;;;24.32;34.74;95781.97;5039692;28;20067;-62
2021/10/04 06:46:38;;;;;;;7.13;4.00;;;;;;;24.27;35.24;95779.97;5040014;28;20029;-61
2021/10/04 06:49:04;;;;;;;7.85;4.80;;;;;;;24.19;35.17;95778.97;5040188;28;20024;-61
2021/10/04 06:51:29;;;;;;;7.88;4.32;;;;;;;24.07;35.00;95766.56;5041189;28;20043;-61
2021/10/04 06:53:54;;;;;;;6.18;4.20;;;;;;;24.13;35.31;95775.50;5039988;28;20021;-61
2021/10/04 06:56:20;;;;;;;7.90;4.03;;;;;;;24.12;35.26;95774.00;5037668;28;20537;-61
2021/10/04 06:58:45;;;;;;;7.50;4.68;;;;;;;24.07;35.33;95793.84;5039726;28;20552;-62
2021/10/04 07:01:11;;;;;;;7.40;4.47;;;;;;;24.00;34.97;95777.97;5036193;28;20052;-61
2021/10/04 07:03:36;;;;;;;8.65;4.25;;;;;;;24.03;35.59;95771.53;5035308;28;20096;-61
2021/10/04 07:06:02;;;;;;;10.18;4.63;;;;;;;24.04;35.18;95773.03;5026644;28;20167;-61
2021/10/04 07:08:27;;;;;;;7.70;4.45;;;;;;;23.97;35.88;95778.94;5037277;28;20106;-61
2021/10/04 07:10:53;;;;;;;10.07;4.47;;;;;;;23.93;35.68;95777.72;5040353;28;20082;-61
2021/10/04 07:13:19;;;;;;;10.55;4.47;;;;;;;23.92;35.41;95781.69;5039704;28;20040;-61
2021/10/04 07:15:44;;;;;;;11.63;5.38;;;;;;;23.86;35.76;95777.47;5033652;28;20539;-61
2021/10/04 07:18:09;;;;;;;11.25;6.28;;;;;;;23.86;35.47;95782.94;5037370;28;20032;-61
2021/10/04 07:20:35;;;;;;;9.50;5.53;;;;;;;23.86;35.36;95788.38;5034588;28;20090;-61
2021/10/04 07:23:02;;;;;;;7.82;5.20;;;;;;;23.81;35.39;95780.91;5041840;28;20028;-61
2021/10/04 07:25:27;;;;;;;9.63;5.30;;;;;;;23.76;35.74;95773.47;5032113;28;20102;-61
2021/10/04 07:27:53;;;;;;;9.18;5.72;;;;;;;23.74;35.62;95781.44;5045716;28;20029;-61
2021/10/04 07:30:18;;;;;;;14.73;6.38;;;;;;;23.72;35.93;95778.44;5039733;28;20033;-61
2021/10/04 07:32:44;;;;;;;10.10;5.80;;;;;;;23.71;35.47;95782.41;5043433;28;20495;-61
2021/10/04 07:35:09;;;;;;;10.55;6.13;;;;;;;23.68;35.58;95777.94;5038787;28;20607;-62
2021/10/04 07:37:35;;;;;;;12.23;6.30;;;;;;;23.65;35.59;95768.00;5045078;28;20028;-61
2021/10/04 07:40:03;;;;;;;11.18;6.20;;;;;;;23.65;35.92;95774.19;5037528;28;20036;-61
2021/10/04 07:42:28;;;;;;;11.23;6.50;;;;;;;23.60;36.07;95771.44;5045577;28;20031;-62
2021/10/04 07:44:54;;;;;;;10.82;6.30;;;;;;;23.61;36.02;95762.75;5044247;28;20021;-61
2021/10/04 07:47:20;;;;;;;11.95;6.07;;;;;;;23.56;35.73;95765.47;5045985;28;20025;-61
2021/10/04 07:49:51;;;;;;;10.98;6.50;;;;;;;23.55;36.01;95769.44;5043433;28;20044;-61
2021/10/04 07:52:17;;;;;;;10.93;6.50;;;;;;;23.53;35.96;95771.91;5042175;28;20021;-61
2021/10/04 07:54:42;;;;;;;13.13;7.05;;;;;;;23.53;36.02;95766.47;5037794;28;20502;-61
2021/10/04 07:57:12;;;;;;;9.60;6.43;;;;;;;23.48;36.07;95764.44;5027767;28;20083;-61
2021/10/04 07:59:41;;;;;;;9.95;6.70;;;;;;;23.47;36.14;95762.97;5027146;28;20562;-61
2021/10/04 08:02:07;;;;;;;11.60;7.05;;;;;;;23.42;35.93;95755.50;5014018;28;20042;-61
2021/10/04 08:04:33;;;;;;;10.48;7.15;;;;;;;23.44;36.04;95758.50;5027429;28;20045;-61
2021/10/04 08:06:59;;;;;;;11.38;7.10;;;;;;;23.29;35.92;95736.16;5025767;28;20147;-61
2021/10/04 08:09:24;;;;;;;12.52;7.13;;;;;;;23.21;35.83;95724.22;5026209;28;20029;-61
2021/10/04 08:11:50;;;;;;;11.05;7.35;;;;;;;23.44;35.91;95755.78;5024732;28;20022;-61
2021/10/04 08:14:15;;;;;;;10.90;6.80;;;;;;;23.44;36.50;95763.97;5026731;28;20460;-61
2021/10/04 08:16:41;;;;;;;10.82;7.15;;;;;;;23.42;35.90;95750.06;5030153;28;20016;-62
2021/10/04 08:19:06;;;;;;;12.80;7.00;;;;;;;23.43;35.97;95751.56;5031594;28;20047;-61
2021/10/04 08:21:32;;;;;;;13.48;8.15;;;;;;;23.41;36.16;95748.59;5032522;28;20145;-61
2021/10/04 08:23:59;;;;;;;12.55;7.05;;;;;;;23.39;36.05;95746.34;5042969;28;20033;-61
2021/10/04 08:26:25;;;;;;;11.55;7.10;;;;;;;23.38;36.32;95738.66;5037486;28;20030;-61
2021/10/04 08:28:51;;;;;;;13.57;7.95;;;;;;;23.35;36.13;95739.66;5024720;28;20039;-61
2021/10/04 08:31:16;;;;;;;12.90;7.22;;;;;;;23.38;36.13;95744.84;5012811;28;20432;-61
2021/10/04 08:33:42;;;;;;;11.52;7.47;;;;;;;23.38;36.27;95749.56;5020968;28;20041;-61
2021/10/04 08:36:07;;;;;;;11.93;7.30;;;;;;;23.36;35.71;95746.56;5015725;28;20040;-60
2021/10/04 08:38:33;;;;;;;11.80;7.35;;;;;;;23.36;36.20;95752.03;5043570;28;20067;-60
2021/10/04 08:40:58;;;;;;;12.15;6.88;;;;;;;23.38;36.34;95746.84;5043016;28;20056;-60
2021/10/04 08:43:23;;;;;;;12.57;7.50;;;;;;;23.27;36.15;95727.72;5046789;28;20033;-61
2021/10/04 08:45:49;;;;;;;12.13;7.45;;;;;;;23.36;36.28;95735.66;5045235;28;20078;-60
2021/10/04 08:48:14;;;;;;;10.35;7.10;;;;;;;23.40;36.11;95730.75;5047048;28;20036;-61
2021/10/04 08:50:40;;;;;;;11.27;7.43;;;;;;;23.42;36.03;95728.25;5046606;28;20114;-61
2021/10/04 08:53:06;;;;;;;12.25;7.20;;;;;;;23.40;36.04;95719.84;5012622;28;20374;-60
2021/10/04 08:55:31;;;;;;;11.95;7.00;;;;;;;23.41;36.17;95721.34;5026653;28;20020;-61
2021/10/04 08:57:57;;;;;;;14.50;7.70;;;;;;;23.43;36.19;95713.41;5039322;28;20033;-61
2021/10/04 09:00:22;;;;;;;11.38;7.68;;;;;;;23.45;35.92;95721.81;5046353;28;20024;-61
2021/10/04 09:02:48;;;;;;;10.98;7.32;;;;;;;23.45;36.19;95727.28;5036957;28;20041;-61
2021/10/04 09:05:22;;;;;;;10.68;6.90;;;;;;;23.46;36.54;95720.59;5016476;28;20074;-61
2021/10/04 09:07:54;;;;;;;10.52;7.05;;;;;;;23.41;36.25;95710.44;5039013;28;20742;-62
2021/10/04 09:10:21;;;;;;;13.07;7.30;;;;;;;23.46;36.08;95720.59;5037035;28;20040;-63
2021/10/04 09:12:51;;;;;;;10.50;7.28;;;;;;;23.47;36.23;95709.19;5033546;28;20033;-62
2021/10/04 09:15:23;;;;;;;29.85;17.77;;;;;;;23.49;36.43;95708.69;5035864;28;20499;-61
2021/10/04 09:17:49;;;;;;;52.70;27.42;;;;;;;23.50;36.36;95702.75;5043987;28;20437;-62
2021/10/04 09:20:15;;;;;;;73.70;36.60;;;;;;;23.53;35.53;95695.59;5036313;28;20106;-62
2021/10/04 09:22:41;;;;;;;45.33;24.70;;;;;;;23.53;35.21;95695.59;5043494;28;20449;-62
2021/10/04 09:25:07;;;;;;;43.38;23.55;;;;;;;23.58;34.90;95698.31;5042021;28;20025;-62
2021/10/04 09:27:33;;;;;;;46.40;21.80;;;;;;;23.51;34.72;95687.13;5042348;28;20072;-62
2021/10/04 09:30:01;;;;;;;39.80;20.08;;;;;;;23.68;34.72;95696.13;5029800;28;20033;-62
2021/10/04 09:32:46;;;;;;;32.17;16.73;;;;;;;23.72;33.97;95685.69;5032396;28;20138;-61
2021/10/04 09:35:19;;;;;;;42.00;19.58;;;;;;;23.85;35.10;95688.69;5025974;28;20481;-61
2021/10/04 09:37:45;;;;;;;30.67;16.05;;;;;;;23.94;34.93;95698.09;5019153;28;20037;-61
2021/10/04 09:40:51;;;;;;;33.25;17.02;;;;;;;24.07;35.36;95684.72;5028310;28;20029;-60
2021/10/04 09:43:30;;;;;;;26.13;13.90;;;;;;;24.20;35.22;95676.78;5022959;28;20048;-61
2021/10/04 09:46:06;;;;;;;26.73;14.20;;;;;;;24.27;36.00;95670.78;5033786;28;20060;-60
2021/10/04 09:48:31;;;;;;;27.67;14.10;;;;;;;24.37;35.66;95674.78;5030358;28;20495;-61
2021/10/04 09:50:57;;;;;;;25.35;13.80;;;;;;;24.42;35.33;95671.28;5036373;28;20071;-61
2021/10/04 09:53:22;;;;;;;26.58;13.25;;;;;;;24.36;35.50;95645.97;5043885;28;20534;-61
2021/10/04 09:55:48;;;;;;;23.52;13.10;;;;;;;24.62;34.81;95657.31;5036655;28;20033;-61
2021/10/04 09:58:21;;;;;;;24.70;12.68;;;;;;;24.74;34.79;95656.03;5038759;28;20032;-61
2021/10/04 10:00:57;;;;;;;20.73;12.13;;;;;;;24.70;34.67;95641.91;5034798;28;20033;-61
2021/10/04 10:03:25;;;;;;;22.67;12.02;;;;;;;24.90;35.17;95656.72;5029200;28;20650;-61
2021/10/04 10:05:54;;;;;;;20.65;12.18;;;;;;;24.98;34.74;95646.75;5040245;28;20029;-63
2021/10/04 10:08:21;;;;;;;19.02;11.13;;;;;;;25.10;34.40;95642.72;5039199;28;20522;-63
2021/10/04 10:10:47;;;;;;;19.10;11.13;;;;;;;25.14;34.28;95643.22;5039631;28;20507;-62
2021/10/04 10:13:15;;;;;;;21.58;11.90;;;;;;;25.21;34.32;95642.66;5040937;28;20040;-63
2021/10/04 10:15:41;;;;;;;23.48;11.02;;;;;;;25.12;34.55;95617.63;5041213;28;20031;-62
2021/10/04 10:18:20;;;;;;;19.90;10.57;;;;;;;25.35;34.30;95647.03;5029459;28;20454;-61
2021/10/04 10:20:53;;;;;;;17.02;10.32;;;;;;;25.20;33.99;95619.34;5035366;28;20646;-62
2021/10/04 10:23:42;;;;;;;18.35;10.15;;;;;;;25.45;34.05;95637.28;5010332;28;20033;-62
2021/10/04 10:26:27;;;;;;;17.90;9.95;;;;;;;25.47;34.00;95637.53;5033209;28;20840;-62
2021/10/04 10:29:20;;;;;;;18.83;10.35;;;;;;;25.51;33.87;95627.78;5033130;28;20035;-62
2021/10/04 10:31:51;;;;;;;16.50;9.63;;;;;;;25.55;34.01;95633.75;5033957;28;20025;-63
2021/10/04 10:34:42;;;;;;;17.00;9.60;;;;;;;25.59;34.25;95633.44;5024073;28;20695;-63
2021/10/04 10:37:27;;;;;;;15.00;9.20;;;;;;;25.66;33.84;95632.94;5022295;28;20040;-61
2021/10/04 10:40:17;;;;;;;17.25;8.82;;;;;;;25.64;33.73;95597.13;5026388;28;20288;-62
2021/10/04 10:43:03;;;;;;;16.58;9.15;;;;;;;25.80;34.03;95622.38;5034536;28;20040;-63
2021/10/04 10:45:42;;;;;;;16.63;9.43;;;;;;;25.52;33.64;95560.19;5017858;28;20116;-62
2021/10/04 10:48:07;;;;;;;16.63;8.70;;;;;;;25.84;33.72;95606.44;5041464;28;20021;-61
2021/10/04 10:50:38;;;;;;;15.38;8.82;;;;;;;25.69;33.59;95594.34;5040673;28;20396;-61
2021/10/04 10:53:06;;;;;;;13.90;8.55;;;;;;;25.86;33.58;95603.91;5039394;28;20020;-62
2021/10/04 10:55:41;;;;;;;14.55;8.30;;;;;;;25.99;33.21;95606.78;5044264;28;20108;-62
2021/10/04 10:58:14;;;;;;;13.95;8.30;;;;;;;26.04;33.39;95603.25;5042911;28;20029;-62
2021/10/04 11:00:48;;;;;;;13.65;8.52;;;;;;;26.07;33.36;95596.75;5039024;28;20404;-61
2021/10/04 11:03:20;;;;;;;14.13;7.95;;;;;;;26.14;32.97;95585.22;5043523;28;20083;-62
2021/10/04 11:05:52;;;;;;;13.88;7.90;;;;;;;26.16;33.35;95588.19;5040069;28;20029;-61
2021/10/04 11:08:22;;;;;;;14.88;8.55;;;;;;;26.21;33.20;95579.16;5042303;28;20115;-62
2021/10/04 11:10:47;;;;;;;15.20;8.25;;;;;;;26.22;33.27;95580.66;5040292;28;20067;-62
2021/10/04 11:13:25;;;;;;;14.18;8.43;;;;;;;26.24;33.25;95578.16;5044325;28;20029;-61
2021/10/04 11:15:54;;;;;;;11.20;7.45;;;;;;;26.24;33.11;95567.19;5040805;28;20499;-63
2021/10/04 11:18:20;;;;;;;14.25;8.23;;;;;;;26.27;32.93;95566.16;5031960;28;20029;-61
2021/10/04 11:20:45;;;;;;;10.98;7.05;;;;;;;26.20;33.11;95533.88;5031091;28;20033;-61
2021/10/04 11:23:13;;;;;;;13.63;7.95;;;;;;;26.20;32.97;95544.09;5028916;28;20511;-63
2021/10/04 11:25:54;;;;;;;13.52;8.05;;;;;;;26.45;32.77;95560.00;5033765;28;20041;-62
2021/10/04 11:28:41;;;;;;;13.07;7.88;;;;;;;26.45;32.55;95560.00;5037413;28;20561;-62
2021/10/04 11:31:08;;;;;;;13.13;7.35;;;;;;;26.41;32.96;95548.59;5034610;28;20041;-62